createdAt,value
2022-12-08T00:01:33.675Z,2.10
2022-12-08T00:04:02.471Z,2.00
2022-12-08T00:06:58.158Z,1.90
2022-12-08T00:09:39.117Z,1.80
2022-12-08T00:12:10.180Z,1.90
2022-12-08T00:14:45.266Z,1.80
2022-12-08T00:17:15.247Z,1.80
2022-12-08T00:19:43.767Z,1.90
2022-12-08T00:22:13.091Z,1.70
2022-12-08T00:24:41.887Z,1.90
2022-12-08T00:27:11.630Z,1.90
2022-12-08T00:29:39.065Z,1.90
2022-12-08T00:32:07.060Z,1.80
2022-12-08T00:34:35.003Z,1.70
2022-12-08T00:37:02.628Z,1.80
2022-12-08T00:39:30.199Z,1.90
2022-12-08T00:42:12.526Z,1.90
2022-12-08T00:44:44.991Z,1.90
2022-12-08T00:47:14.075Z,2.00
2022-12-08T00:49:41.806Z,2.10
2022-12-08T00:52:09.612Z,2.10
2022-12-08T00:54:37.280Z,2.10
2022-12-08T00:57:04.862Z,2.10
2022-12-08T00:59:32.346Z,1.80
2022-12-08T01:02:00.222Z,1.80
2022-12-08T01:04:27.751Z,1.90
2022-12-08T01:06:55.488Z,1.80
2022-12-08T01:09:23.217Z,1.80
2022-12-08T01:11:50.824Z,1.90
2022-12-08T01:14:18.381Z,1.80
2022-12-08T01:16:46.103Z,1.80
2022-12-08T01:19:16.181Z,1.80
2022-12-08T01:21:45.583Z,1.70
2022-12-08T01:24:15.955Z,1.60
2022-12-08T01:26:43.818Z,1.60
2022-12-08T01:29:11.797Z,1.60
2022-12-08T01:31:40.013Z,1.50
2022-12-08T01:34:08.937Z,1.60
2022-12-08T01:36:39.796Z,1.50
2022-12-08T01:39:14.438Z,1.50
2022-12-08T01:41:43.749Z,1.50
2022-12-08T01:44:11.194Z,1.40
2022-12-08T01:46:43.571Z,1.40
2022-12-08T01:49:25.599Z,1.30
2022-12-08T01:52:00.986Z,1.30
2022-12-08T01:54:33.769Z,1.30
2022-12-08T01:57:13.352Z,1.30
2022-12-08T01:59:48.451Z,1.40
2022-12-08T02:02:16.075Z,1.30
2022-12-08T02:04:43.606Z,1.20
2022-12-08T02:07:13.376Z,1.20
2022-12-08T02:09:42.484Z,1.20
2022-12-08T02:12:11.138Z,1.10
2022-12-08T02:14:38.991Z,1.10
2022-12-08T02:17:17.730Z,1.20
2022-12-08T02:20:21.620Z,1.20
2022-12-08T02:23:09.333Z,1.10
2022-12-08T02:26:11.766Z,1.10
2022-12-08T02:29:06.318Z,1.10
2022-12-08T02:31:55.685Z,1.20
2022-12-08T02:34:41.295Z,1.10
2022-12-08T02:37:14.121Z,1.10
2022-12-08T02:40:16.704Z,1.10
2022-12-08T02:42:58.044Z,1.10
2022-12-08T02:46:03.161Z,1.10
2022-12-08T02:48:32.740Z,1.10
2022-12-08T02:51:00.328Z,1.00
2022-12-08T02:53:31.528Z,1.00
2022-12-08T02:55:58.891Z,1.10
2022-12-08T02:58:29.363Z,1.00
2022-12-08T03:01:10.106Z,1.00
2022-12-08T03:03:55.701Z,1.00
2022-12-08T03:06:40.801Z,1.00
2022-12-08T03:09:17.617Z,1.00
2022-12-08T03:11:51.037Z,0.90
2022-12-08T03:14:19.667Z,0.80
2022-12-08T03:16:51.980Z,0.80
2022-12-08T03:19:23.781Z,0.90
2022-12-08T03:22:02.800Z,0.90
2022-12-08T03:24:34.888Z,0.80
2022-12-08T03:27:14.858Z,0.80
2022-12-08T03:29:42.437Z,0.80
2022-12-08T03:32:32.299Z,0.90
2022-12-08T03:35:04.212Z,0.90
2022-12-08T03:37:31.553Z,0.90
2022-12-08T03:39:58.911Z,0.90
2022-12-08T03:42:26.435Z,0.80
2022-12-08T03:44:53.983Z,0.80
2022-12-08T03:47:21.444Z,0.70
2022-12-08T03:49:48.886Z,0.70
2022-12-08T03:52:16.573Z,0.70
2022-12-08T03:57:12.088Z,0.60
2022-12-08T03:59:39.877Z,0.70
2022-12-08T04:02:07.399Z,0.50
2022-12-08T04:04:35.109Z,0.60
2022-12-08T04:07:02.665Z,0.60
2022-12-08T04:09:30.178Z,0.70
2022-12-08T04:11:57.631Z,0.70
2022-12-08T04:14:25.101Z,0.70
2022-12-08T04:16:52.540Z,0.70
2022-12-08T04:19:20.040Z,0.90
2022-12-08T04:21:47.543Z,0.90
2022-12-08T04:24:14.977Z,0.80
2022-12-08T04:26:42.680Z,0.80
2022-12-08T04:29:10.256Z,0.70
2022-12-08T04:31:38.106Z,0.80
2022-12-08T04:34:05.551Z,0.80
2022-12-08T04:36:33.153Z,0.80
2022-12-08T04:39:00.515Z,0.80
2022-12-08T04:41:27.988Z,0.60
2022-12-08T04:43:55.459Z,0.70
2022-12-08T04:46:23.010Z,0.70
2022-12-08T04:48:50.596Z,0.70
2022-12-08T04:51:19.824Z,0.70
2022-12-08T04:53:47.871Z,0.60
2022-12-08T04:56:18.264Z,0.50
2022-12-08T04:58:46.155Z,0.40
2022-12-08T05:01:14.205Z,0.60
2022-12-08T05:03:41.897Z,0.60
2022-12-08T05:06:12.765Z,0.40
2022-12-08T05:08:41.036Z,0.50
2022-12-08T05:11:10.884Z,0.40
2022-12-08T05:13:38.481Z,0.40
2022-12-08T05:16:09.000Z,0.50
2022-12-08T05:18:37.277Z,0.40
2022-12-08T05:21:05.838Z,0.40
2022-12-08T05:23:33.846Z,0.40
2022-12-08T05:26:02.019Z,0.40
2022-12-08T05:28:44.845Z,0.40
2022-12-08T05:31:13.630Z,0.40
2022-12-08T05:33:41.472Z,0.60
2022-12-08T05:36:10.561Z,0.50
2022-12-08T05:38:38.060Z,0.50
2022-12-08T05:41:09.558Z,0.50
2022-12-08T05:43:37.107Z,0.60
2022-12-08T05:46:05.297Z,0.80
2022-12-08T05:48:33.064Z,0.90
2022-12-08T05:51:01.780Z,1.10
2022-12-08T05:53:29.341Z,1.40
2022-12-08T05:55:56.905Z,1.50
2022-12-08T05:58:24.494Z,1.40
2022-12-08T06:00:52.044Z,1.50
2022-12-08T06:03:20.302Z,1.30
2022-12-08T06:05:48.278Z,1.40
2022-12-08T06:08:15.950Z,1.30
2022-12-08T06:10:44.953Z,1.40
2022-12-08T06:13:12.949Z,1.30
2022-12-08T06:15:41.413Z,1.30
2022-12-08T06:18:10.623Z,1.30
2022-12-08T06:20:38.121Z,1.30
2022-12-08T06:23:05.571Z,1.30
2022-12-08T06:25:33.044Z,1.20
2022-12-08T06:28:00.553Z,1.40
2022-12-08T06:30:28.667Z,1.20
2022-12-08T06:32:56.216Z,1.20
2022-12-08T06:35:23.760Z,1.30
2022-12-08T06:37:51.893Z,1.30
2022-12-08T06:40:20.055Z,1.40
2022-12-08T06:42:47.688Z,1.40
2022-12-08T06:45:16.997Z,1.40
2022-12-08T06:47:44.796Z,1.30
2022-12-08T06:50:13.468Z,1.20
2022-12-08T06:52:50.821Z,1.20
2022-12-08T06:55:51.252Z,1.30
2022-12-08T06:58:12.630Z,1.10
2022-12-08T07:00:41.468Z,1.10
2022-12-08T07:03:10.051Z,1.00
2022-12-08T07:05:38.602Z,1.00
2022-12-08T07:08:08.169Z,1.10
2022-12-08T07:10:36.060Z,1.20
2022-12-08T07:13:03.611Z,1.10
2022-12-08T07:15:31.082Z,1.10
2022-12-08T07:18:00.415Z,1.20
2022-12-08T07:20:28.440Z,1.30
2022-12-08T07:22:55.976Z,1.20
2022-12-08T07:25:24.014Z,1.20
2022-12-08T07:27:52.710Z,1.20
2022-12-08T07:30:20.348Z,1.30
2022-12-08T07:32:47.930Z,1.30
2022-12-08T07:35:15.515Z,1.50
2022-12-08T07:37:43.152Z,1.50
2022-12-08T07:40:11.186Z,1.50
2022-12-08T07:42:38.702Z,1.50
2022-12-08T07:45:06.716Z,1.50
2022-12-08T07:47:34.195Z,1.60
2022-12-08T07:50:01.848Z,1.70
2022-12-08T07:52:29.536Z,2.10
2022-12-08T07:54:59.863Z,2.30
2022-12-08T07:57:27.431Z,2.50
2022-12-08T07:59:54.888Z,2.60
2022-12-08T08:02:24.871Z,2.70
2022-12-08T08:04:53.481Z,2.70
2022-12-08T08:07:21.099Z,2.80
2022-12-08T08:09:48.605Z,2.80
2022-12-08T08:12:31.275Z,2.70
2022-12-08T08:15:00.297Z,2.70
2022-12-08T08:17:28.695Z,2.70
2022-12-08T08:19:56.505Z,2.70
2022-12-08T08:22:25.350Z,2.60
2022-12-08T08:24:53.598Z,2.70
2022-12-08T08:27:21.312Z,2.70
2022-12-08T08:29:49.075Z,2.60
2022-12-08T08:32:16.952Z,2.60
2022-12-08T08:34:44.524Z,2.50
2022-12-08T08:37:12.084Z,2.60
2022-12-08T08:39:39.561Z,2.60
2022-12-08T08:42:06.974Z,2.60
2022-12-08T08:44:34.459Z,2.70
2022-12-08T08:47:02.004Z,2.70
2022-12-08T08:49:29.631Z,2.80
2022-12-08T08:51:57.115Z,2.80
2022-12-08T08:54:24.561Z,3.20
2022-12-08T08:56:52.735Z,3.50
2022-12-08T08:59:20.191Z,3.70
2022-12-08T09:01:47.730Z,3.80
2022-12-08T09:04:15.472Z,3.90
2022-12-08T09:06:45.620Z,4.20
2022-12-08T09:09:13.054Z,4.30
2022-12-08T09:11:40.786Z,4.50
2022-12-08T09:14:08.339Z,4.60
2022-12-08T09:16:41.777Z,4.70
2022-12-08T09:19:09.860Z,4.70
2022-12-08T09:21:37.378Z,4.50
2022-12-08T09:24:05.076Z,4.20
2022-12-08T09:26:32.617Z,4.50
2022-12-08T09:29:00.104Z,4.40
2022-12-08T09:31:27.612Z,4.40
2022-12-08T09:33:55.165Z,4.40
2022-12-08T09:36:22.831Z,4.50
2022-12-08T09:38:51.818Z,4.50
2022-12-08T09:41:41.819Z,4.40
2022-12-08T09:44:44.255Z,4.50
2022-12-08T09:47:39.693Z,4.60
2022-12-08T09:50:16.075Z,4.70
2022-12-08T09:53:09.213Z,4.90
2022-12-08T09:55:55.292Z,4.70
2022-12-08T09:58:37.986Z,4.90
2022-12-08T10:01:05.571Z,4.80
2022-12-08T10:03:33.062Z,5.00
2022-12-08T10:06:32.536Z,5.00
2022-12-08T10:09:12.827Z,5.10
2022-12-08T10:11:56.948Z,5.30
2022-12-08T10:14:51.801Z,5.50
2022-12-08T10:17:35.855Z,5.70
2022-12-08T10:20:17.559Z,5.90
2022-12-08T10:22:47.260Z,6.00
2022-12-08T10:25:19.449Z,5.90
2022-12-08T10:27:51.365Z,5.90
2022-12-08T10:30:22.558Z,6.10
2022-12-08T10:32:52.112Z,6.20
2022-12-08T10:35:22.173Z,6.20
2022-12-08T10:38:01.022Z,6.50
2022-12-08T10:40:39.116Z,6.30
2022-12-08T10:43:34.782Z,6.40
2022-12-08T10:46:12.619Z,6.40
2022-12-08T10:48:50.161Z,6.60
2022-12-08T10:51:40.164Z,6.60
2022-12-08T10:54:32.982Z,6.90
2022-12-08T10:57:00.498Z,7.20
2022-12-08T10:59:28.173Z,7.10
2022-12-08T11:01:57.113Z,7.10
2022-12-08T11:04:36.575Z,7.10
2022-12-08T11:07:11.644Z,7.00
2022-12-08T11:09:48.735Z,7.00
2022-12-08T11:12:17.802Z,7.10
2022-12-08T11:14:45.853Z,7.50
2022-12-08T11:17:17.020Z,7.30
2022-12-08T11:20:19.702Z,7.20
2022-12-08T11:22:51.984Z,7.30
2022-12-08T11:25:22.581Z,7.50
2022-12-08T11:27:53.374Z,7.20
2022-12-08T11:30:25.812Z,7.20
2022-12-08T11:33:01.400Z,7.50
2022-12-08T11:35:33.907Z,7.30
2022-12-08T11:38:40.965Z,7.30
2022-12-08T11:41:21.745Z,7.40
2022-12-08T11:44:11.254Z,7.50
2022-12-08T11:46:48.792Z,7.30
2022-12-08T11:49:18.080Z,7.40
2022-12-08T11:51:48.607Z,7.30
2022-12-08T11:54:27.135Z,7.30
2022-12-08T11:56:57.925Z,7.20
2022-12-08T11:59:41.680Z,7.30
2022-12-08T12:02:16.448Z,7.40
2022-12-08T12:04:55.749Z,7.50
2022-12-08T12:07:38.710Z,7.70
2022-12-08T12:10:12.882Z,7.60
2022-12-08T12:13:03.412Z,7.80
2022-12-08T12:16:09.219Z,7.90
2022-12-08T12:18:46.896Z,8.10
2022-12-08T12:21:50.777Z,8.10
2022-12-08T12:24:26.789Z,8.00
2022-12-08T12:27:06.732Z,8.00
2022-12-08T12:29:37.658Z,8.00
2022-12-08T12:32:08.694Z,8.20
2022-12-08T12:34:38.990Z,8.50
2022-12-08T12:37:37.587Z,8.60
2022-12-08T12:40:16.520Z,8.60
2022-12-08T12:43:09.785Z,8.50
2022-12-08T12:45:43.525Z,8.70
2022-12-08T12:48:22.366Z,8.70
2022-12-08T12:50:51.400Z,8.70
2022-12-08T12:53:19.095Z,8.60
2022-12-08T12:55:46.641Z,8.70
2022-12-08T12:58:29.642Z,8.60
2022-12-08T13:01:15.128Z,8.80
2022-12-08T13:03:44.667Z,8.70
2022-12-08T13:06:15.013Z,8.70
2022-12-08T13:08:53.169Z,8.70
2022-12-08T13:11:21.915Z,8.70
2022-12-08T13:14:03.208Z,8.80
2022-12-08T13:16:37.699Z,8.70
2022-12-08T13:19:13.057Z,8.80
2022-12-08T13:21:40.940Z,8.70
2022-12-08T13:24:14.310Z,8.90
2022-12-08T13:27:04.230Z,8.70
2022-12-08T13:29:37.339Z,8.70
2022-12-08T13:33:16.159Z,8.80
2022-12-08T13:35:30.862Z,8.80
2022-12-08T13:38:00.420Z,8.80
2022-12-08T13:40:30.301Z,8.80
2022-12-08T13:43:06.028Z,8.80
2022-12-08T13:49:36.542Z,8.80
2022-12-08T13:57:30.686Z,8.50
2022-12-08T14:00:05.169Z,8.60
2022-12-08T14:02:48.236Z,8.70
2022-12-08T14:05:20.624Z,8.70
2022-12-08T14:07:56.112Z,8.60
2022-12-08T14:10:30.401Z,8.70
2022-12-08T14:13:12.569Z,8.60
2022-12-08T14:15:40.600Z,8.70
2022-12-08T14:18:24.927Z,8.60
2022-12-08T14:21:21.940Z,8.50
2022-12-08T14:23:49.624Z,8.40
2022-12-08T14:26:18.008Z,8.30
2022-12-08T14:28:45.552Z,8.20
2022-12-08T14:31:14.716Z,8.20
2022-12-08T14:33:43.011Z,8.00
2022-12-08T14:36:20.956Z,7.90
2022-12-08T14:38:56.652Z,7.80
2022-12-08T14:41:32.599Z,7.70
2022-12-08T14:44:01.759Z,7.80
2022-12-08T14:46:29.541Z,7.70
2022-12-08T14:48:58.163Z,7.50
2022-12-08T14:51:32.192Z,7.50
2022-12-08T14:54:06.831Z,7.20
2022-12-08T14:56:54.921Z,7.30
2022-12-08T14:59:32.465Z,7.20
2022-12-08T15:02:31.878Z,7.20
2022-12-08T15:05:11.089Z,7.10
2022-12-08T15:07:51.206Z,7.00
2022-12-08T15:10:27.397Z,6.90
2022-12-08T15:13:11.098Z,6.90
2022-12-08T15:15:58.029Z,6.80
2022-12-08T15:18:40.013Z,6.80
2022-12-08T15:21:09.629Z,6.80
2022-12-08T15:23:44.767Z,6.90
2022-12-08T15:26:26.646Z,6.90
2022-12-08T15:28:54.977Z,6.80
2022-12-08T15:31:22.643Z,6.70
2022-12-08T15:33:50.178Z,6.70
2022-12-08T15:36:17.726Z,6.60
2022-12-08T15:38:45.207Z,6.50
2022-12-08T15:41:15.241Z,6.50
2022-12-08T15:43:42.998Z,6.50
2022-12-08T15:46:10.670Z,6.30
2022-12-08T15:48:38.257Z,6.30
2022-12-08T15:51:05.756Z,6.20
2022-12-08T15:53:33.155Z,6.20
2022-12-08T15:58:55.694Z,6.30
2022-12-08T16:01:24.416Z,6.30
2022-12-08T16:09:34.555Z,5.80
2022-12-08T16:12:20.773Z,5.70
2022-12-08T16:17:37.347Z,5.40
2022-12-08T16:20:11.178Z,5.30
2022-12-08T16:23:03.550Z,5.30
2022-12-08T16:25:28.780Z,5.50
2022-12-08T16:28:12.550Z,5.60
2022-12-08T16:30:48.528Z,5.90
2022-12-08T16:33:15.964Z,6.00
2022-12-08T16:35:43.558Z,6.10
2022-12-08T16:38:15.519Z,6.30
2022-12-08T16:41:07.937Z,6.40
2022-12-08T16:43:35.714Z,6.20
2022-12-08T16:46:04.553Z,6.00
2022-12-08T16:48:32.132Z,6.20
2022-12-08T16:50:59.618Z,6.30
2022-12-08T16:53:27.143Z,6.50
2022-12-08T16:55:54.606Z,6.50
2022-12-08T16:58:21.992Z,6.40
2022-12-08T17:00:49.522Z,6.10
2022-12-08T17:03:17.661Z,5.80
2022-12-08T17:05:45.190Z,5.80
2022-12-08T17:08:14.041Z,5.80
2022-12-08T17:10:41.906Z,5.80
2022-12-08T17:13:10.762Z,5.70
2022-12-08T17:15:40.255Z,5.70
2022-12-08T17:18:07.827Z,5.60
2022-12-08T17:20:36.311Z,5.70
2022-12-08T17:23:03.822Z,5.80
2022-12-08T17:25:31.721Z,5.90
2022-12-08T17:27:59.130Z,5.90
2022-12-08T17:30:26.622Z,5.90
2022-12-08T17:32:54.465Z,5.80
2022-12-08T17:35:21.957Z,5.80
2022-12-08T17:37:49.450Z,5.90
2022-12-08T17:40:16.963Z,6.00
2022-12-08T17:42:44.755Z,6.10
2022-12-08T17:45:12.334Z,6.20
2022-12-08T17:47:39.962Z,6.20
2022-12-08T17:50:08.507Z,6.10
2022-12-08T17:52:36.186Z,6.20
2022-12-08T17:55:04.288Z,6.10
2022-12-08T17:57:31.858Z,6.10
2022-12-08T17:59:59.385Z,6.00
2022-12-08T18:02:26.939Z,6.00
2022-12-08T18:04:54.520Z,5.90
2022-12-08T18:07:22.022Z,5.90
2022-12-08T18:09:51.509Z,6.00
2022-12-08T18:12:23.396Z,6.00
2022-12-08T18:14:52.355Z,6.10
2022-12-08T18:17:20.620Z,6.20
2022-12-08T18:19:48.142Z,6.20
2022-12-08T18:22:16.126Z,6.20
2022-12-08T18:24:44.139Z,6.20
2022-12-08T18:27:11.702Z,6.20
2022-12-08T18:29:40.051Z,6.30
2022-12-08T18:32:08.553Z,6.40
2022-12-08T18:34:36.161Z,6.60
2022-12-08T18:37:03.953Z,6.50
2022-12-08T18:39:32.864Z,6.60
2022-12-08T18:42:22.071Z,6.50
2022-12-08T18:45:07.307Z,6.60
2022-12-08T18:47:37.070Z,6.70
2022-12-08T18:50:08.340Z,6.80
2022-12-08T18:52:36.075Z,6.80
2022-12-08T18:55:07.524Z,6.90
2022-12-08T18:57:38.849Z,7.00
2022-12-08T19:00:08.797Z,6.70
2022-12-08T19:02:38.382Z,6.60
2022-12-08T19:05:07.960Z,6.60
2022-12-08T19:07:35.958Z,6.60
2022-12-08T19:10:04.993Z,6.50
2022-12-08T19:12:32.741Z,6.50
2022-12-08T19:15:00.271Z,6.40
2022-12-08T19:17:29.647Z,6.40
2022-12-08T19:19:57.750Z,6.30
2022-12-08T19:22:25.222Z,6.20
2022-12-08T19:24:52.727Z,6.30
2022-12-08T19:27:20.308Z,6.40
2022-12-08T19:29:47.985Z,6.50
2022-12-08T19:32:15.497Z,6.40
2022-12-08T19:34:43.083Z,6.60
2022-12-08T19:37:12.581Z,6.50
2022-12-08T19:39:58.936Z,6.50
2022-12-08T19:42:44.838Z,6.50
2022-12-08T19:45:19.860Z,6.60
2022-12-08T19:47:47.846Z,6.50
2022-12-08T19:50:35.031Z,6.40
2022-12-08T19:53:10.812Z,6.30
2022-12-08T19:55:38.798Z,6.40
2022-12-08T19:58:07.270Z,6.40
2022-12-08T20:00:36.314Z,6.40
2022-12-08T20:03:04.880Z,6.40
2022-12-08T20:05:34.330Z,6.40
2022-12-08T20:08:01.906Z,6.30
2022-12-08T20:10:33.763Z,6.40
2022-12-08T20:13:20.359Z,6.40
2022-12-08T20:15:48.255Z,6.40
2022-12-08T20:18:16.470Z,6.40
2022-12-08T20:20:45.613Z,6.40
2022-12-08T20:23:14.695Z,6.50
2022-12-08T20:25:44.139Z,6.50
2022-12-08T20:28:12.148Z,6.40
2022-12-08T20:30:42.830Z,6.50
2022-12-08T20:33:13.005Z,6.50
2022-12-08T20:35:40.668Z,6.60
2022-12-08T20:38:08.352Z,6.50
2022-12-08T20:40:35.932Z,6.50
2022-12-08T20:43:03.465Z,6.60
2022-12-08T20:45:30.920Z,6.50
2022-12-08T20:47:58.500Z,6.50
2022-12-08T20:50:26.058Z,6.40
2022-12-08T20:52:54.266Z,6.40
2022-12-08T20:55:21.813Z,6.50
2022-12-08T20:57:49.230Z,6.70
2022-12-08T21:00:17.699Z,6.50
2022-12-08T21:02:49.741Z,6.40
2022-12-08T21:05:21.760Z,6.40
2022-12-08T21:07:49.436Z,6.30
2022-12-08T21:10:17.363Z,6.40
2022-12-08T21:12:44.914Z,6.50
2022-12-08T21:15:12.812Z,6.60
2022-12-08T21:17:40.601Z,6.50
2022-12-08T21:20:08.668Z,6.60
2022-12-08T21:22:36.405Z,6.50
2022-12-08T21:25:04.143Z,6.60
2022-12-08T21:27:31.678Z,6.50
2022-12-08T21:29:59.421Z,6.60
2022-12-08T21:32:30.328Z,6.70
2022-12-08T21:34:58.639Z,6.70
2022-12-08T21:37:26.223Z,6.80
2022-12-08T21:39:53.843Z,6.80
2022-12-08T21:42:39.760Z,6.70
2022-12-08T21:45:08.076Z,6.60
2022-12-08T21:47:35.786Z,6.60
2022-12-08T21:50:04.648Z,6.60
2022-12-08T21:52:32.550Z,6.60
2022-12-08T21:55:00.263Z,6.50
2022-12-08T21:57:27.883Z,6.50
2022-12-08T21:59:55.333Z,6.40
2022-12-08T22:02:23.408Z,6.50
2022-12-08T22:04:52.800Z,6.50
2022-12-08T22:07:21.320Z,6.50
2022-12-08T22:09:49.330Z,6.40
2022-12-08T22:12:17.333Z,6.40
2022-12-08T22:14:45.720Z,6.40
2022-12-08T22:17:13.417Z,6.40
2022-12-08T22:19:41.074Z,6.40
2022-12-08T22:22:08.469Z,6.40
2022-12-08T22:24:36.335Z,6.40
2022-12-08T22:27:04.009Z,6.40
2022-12-08T22:29:31.538Z,6.30
2022-12-08T22:31:59.149Z,6.40
2022-12-08T22:34:26.762Z,6.40
2022-12-08T22:36:54.306Z,6.40
2022-12-08T22:39:21.861Z,6.40
2022-12-08T22:41:49.277Z,6.40
2022-12-08T22:44:16.950Z,6.50
2022-12-08T22:46:44.769Z,6.50
2022-12-08T22:49:12.231Z,6.60
2022-12-08T22:51:39.662Z,6.50
2022-12-08T22:54:09.534Z,6.60
2022-12-08T22:56:37.163Z,6.50
2022-12-08T22:59:05.411Z,6.40
2022-12-08T23:01:33.671Z,6.50
2022-12-08T23:04:01.618Z,6.40
2022-12-08T23:06:30.519Z,6.50
2022-12-08T23:08:59.379Z,6.60
2022-12-08T23:11:30.727Z,6.60
2022-12-08T23:14:02.596Z,6.60
2022-12-08T23:16:30.423Z,6.50
2022-12-08T23:18:59.175Z,6.50
2022-12-08T23:21:27.117Z,6.40
2022-12-08T23:23:54.741Z,6.40
2022-12-08T23:26:25.078Z,6.40
2022-12-08T23:28:52.812Z,6.40
2022-12-08T23:31:21.077Z,6.40
2022-12-08T23:33:49.266Z,6.30
2022-12-08T23:36:18.825Z,6.30
2022-12-08T23:38:46.637Z,6.30
2022-12-08T23:41:15.686Z,6.30
2022-12-08T23:43:47.907Z,6.30
2022-12-08T23:46:17.795Z,6.30
2022-12-08T23:48:45.585Z,6.30
2022-12-08T23:51:14.041Z,6.30
2022-12-08T23:53:41.783Z,6.30
2022-12-08T23:56:13.036Z,6.30
2022-12-08T23:58:42.170Z,6.30
